sensor_id;sensor_type;location;lat;lon;timestamp;P1;durP1;ratioP1;P2;durP2;ratioP2
58581;SDS011;44361;51.476;5.700;2022-11-21T00:00:16;9.10;;;1.77;;
58581;SDS011;44361;51.476;5.700;2022-11-21T00:02:42;8.75;;;1.80;;
58581;SDS011;44361;51.476;5.700;2022-11-21T00:05:07;6.72;;;1.77;;
58581;SDS011;44361;51.476;5.700;2022-11-21T00:07:33;7.85;;;2.15;;
58581;SDS011;44361;51.476;5.700;2022-11-21T00:09:59;5.05;;;1.88;;
58581;SDS011;44361;51.476;5.700;2022-11-21T00:12:24;8.70;;;2.10;;
58581;SDS011;44361;51.476;5.700;2022-11-21T00:14:50;5.78;;;2.08;;
58581;SDS011;44361;51.476;5.700;2022-11-21T00:17:15;9.60;;;2.47;;
58581;SDS011;44361;51.476;5.700;2022-11-21T00:19:41;10.40;;;2.67;;
58581;SDS011;44361;51.476;5.700;2022-11-21T00:22:06;14.23;;;3.10;;
58581;SDS011;44361;51.476;5.700;2022-11-21T00:24:32;11.50;;;3.05;;
58581;SDS011;44361;51.476;5.700;2022-11-21T00:26:57;11.20;;;2.85;;
58581;SDS011;44361;51.476;5.700;2022-11-21T00:29:23;9.82;;;3.22;;
58581;SDS011;44361;51.476;5.700;2022-11-21T00:31:48;13.57;;;3.25;;
58581;SDS011;44361;51.476;5.700;2022-11-21T00:34:14;10.15;;;3.25;;
58581;SDS011;44361;51.476;5.700;2022-11-21T00:36:40;12.63;;;3.58;;
58581;SDS011;44361;51.476;5.700;2022-11-21T00:39:06;8.30;;;4.32;;
58581;SDS011;44361;51.476;5.700;2022-11-21T00:41:32;12.30;;;3.80;;
58581;SDS011;44361;51.476;5.700;2022-11-21T00:43:57;12.27;;;4.70;;
58581;SDS011;44361;51.476;5.700;2022-11-21T00:46:23;9.90;;;4.20;;
58581;SDS011;44361;51.476;5.700;2022-11-21T00:48:48;10.05;;;3.60;;
58581;SDS011;44361;51.476;5.700;2022-11-21T00:51:14;8.45;;;3.97;;
58581;SDS011;44361;51.476;5.700;2022-11-21T00:53:40;15.23;;;3.85;;
58581;SDS011;44361;51.476;5.700;2022-11-21T00:56:05;18.40;;;4.65;;
58581;SDS011;44361;51.476;5.700;2022-11-21T00:58:31;16.85;;;3.95;;
58581;SDS011;44361;51.476;5.700;2022-11-21T01:01:07;14.23;;;5.03;;
58581;SDS011;44361;51.476;5.700;2022-11-21T01:03:35;19.25;;;6.65;;
58581;SDS011;44361;51.476;5.700;2022-11-21T01:06:02;18.10;;;6.57;;
58581;SDS011;44361;51.476;5.700;2022-11-21T01:08:30;19.30;;;8.07;;
58581;SDS011;44361;51.476;5.700;2022-11-21T01:10:56;23.00;;;8.88;;
58581;SDS011;44361;51.476;5.700;2022-11-21T01:13:29;25.25;;;9.65;;
58581;SDS011;44361;51.476;5.700;2022-11-21T01:15:55;27.40;;;11.50;;
58581;SDS011;44361;51.476;5.700;2022-11-21T01:18:20;27.67;;;12.20;;
58581;SDS011;44361;51.476;5.700;2022-11-21T01:20:46;30.10;;;13.23;;
58581;SDS011;44361;51.476;5.700;2022-11-21T01:23:11;32.40;;;12.77;;
58581;SDS011;44361;51.476;5.700;2022-11-21T01:25:37;32.30;;;14.88;;
58581;SDS011;44361;51.476;5.700;2022-11-21T01:28:02;36.65;;;14.35;;
58581;SDS011;44361;51.476;5.700;2022-11-21T01:30:28;37.45;;;15.27;;
58581;SDS011;44361;51.476;5.700;2022-11-21T01:32:53;48.53;;;17.92;;
58581;SDS011;44361;51.476;5.700;2022-11-21T01:35:19;46.28;;;18.48;;
58581;SDS011;44361;51.476;5.700;2022-11-21T01:37:48;36.72;;;17.88;;
58581;SDS011;44361;51.476;5.700;2022-11-21T01:40:14;45.58;;;19.85;;
58581;SDS011;44361;51.476;5.700;2022-11-21T01:46:13;53.20;;;20.90;;
58581;SDS011;44361;51.476;5.700;2022-11-21T01:51:28;49.20;;;20.95;;
58581;SDS011;44361;51.476;5.700;2022-11-21T01:54:13;47.90;;;21.00;;
58581;SDS011;44361;51.476;5.700;2022-11-21T01:56:52;46.88;;;20.70;;
58581;SDS011;44361;51.476;5.700;2022-11-21T01:59:40;49.35;;;20.42;;
58581;SDS011;44361;51.476;5.700;2022-11-21T02:02:11;50.33;;;21.38;;
58581;SDS011;44361;51.476;5.700;2022-11-21T02:04:39;49.10;;;22.10;;
58581;SDS011;44361;51.476;5.700;2022-11-21T02:07:07;53.25;;;21.45;;
58581;SDS011;44361;51.476;5.700;2022-11-21T02:09:33;48.97;;;21.63;;
58581;SDS011;44361;51.476;5.700;2022-11-21T02:12:04;48.38;;;20.92;;
58581;SDS011;44361;51.476;5.700;2022-11-21T02:14:35;46.47;;;20.73;;
58581;SDS011;44361;51.476;5.700;2022-11-21T02:17:04;54.65;;;22.65;;
58581;SDS011;44361;51.476;5.700;2022-11-21T02:19:40;51.78;;;23.88;;
58581;SDS011;44361;51.476;5.700;2022-11-21T02:22:20;56.92;;;23.38;;
58581;SDS011;44361;51.476;5.700;2022-11-21T02:25:20;57.08;;;21.80;;
58581;SDS011;44361;51.476;5.700;2022-11-21T02:27:48;61.42;;;24.55;;
58581;SDS011;44361;51.476;5.700;2022-11-21T02:30:16;51.30;;;23.55;;
58581;SDS011;44361;51.476;5.700;2022-11-21T02:32:43;56.92;;;24.08;;
58581;SDS011;44361;51.476;5.700;2022-11-21T02:35:11;59.17;;;24.90;;
58581;SDS011;44361;51.476;5.700;2022-11-21T02:37:38;53.90;;;22.90;;
58581;SDS011;44361;51.476;5.700;2022-11-21T02:40:06;60.35;;;24.27;;
58581;SDS011;44361;51.476;5.700;2022-11-21T02:47:42;63.08;;;25.67;;
58581;SDS011;44361;51.476;5.700;2022-11-21T02:50:22;65.18;;;24.98;;
58581;SDS011;44361;51.476;5.700;2022-11-21T02:52:49;59.80;;;24.10;;
58581;SDS011;44361;51.476;5.700;2022-11-21T02:55:14;59.10;;;23.55;;
58581;SDS011;44361;51.476;5.700;2022-11-21T02:57:40;64.05;;;25.70;;
58581;SDS011;44361;51.476;5.700;2022-11-21T03:00:06;56.60;;;23.42;;
58581;SDS011;44361;51.476;5.700;2022-11-21T03:02:33;56.45;;;24.55;;
58581;SDS011;44361;51.476;5.700;2022-11-21T03:04:59;69.93;;;25.48;;
58581;SDS011;44361;51.476;5.700;2022-11-21T03:07:25;67.07;;;25.08;;
58581;SDS011;44361;51.476;5.700;2022-11-21T03:09:51;59.63;;;24.25;;
58581;SDS011;44361;51.476;5.700;2022-11-21T03:12:16;61.20;;;25.27;;
58581;SDS011;44361;51.476;5.700;2022-11-21T03:14:42;61.05;;;25.02;;
58581;SDS011;44361;51.476;5.700;2022-11-21T03:17:07;63.92;;;25.50;;
58581;SDS011;44361;51.476;5.700;2022-11-21T03:19:33;67.07;;;27.02;;
58581;SDS011;44361;51.476;5.700;2022-11-21T03:21:58;60.40;;;25.95;;
58581;SDS011;44361;51.476;5.700;2022-11-21T03:24:24;63.63;;;25.38;;
58581;SDS011;44361;51.476;5.700;2022-11-21T03:26:49;63.22;;;23.67;;
58581;SDS011;44361;51.476;5.700;2022-11-21T03:29:15;69.70;;;25.10;;
58581;SDS011;44361;51.476;5.700;2022-11-21T03:31:40;72.05;;;26.90;;
58581;SDS011;44361;51.476;5.700;2022-11-21T03:34:06;76.03;;;27.05;;
58581;SDS011;44361;51.476;5.700;2022-11-21T03:36:31;71.80;;;27.00;;
58581;SDS011;44361;51.476;5.700;2022-11-21T03:38:57;71.70;;;27.83;;
58581;SDS011;44361;51.476;5.700;2022-11-21T03:41:23;68.47;;;27.50;;
58581;SDS011;44361;51.476;5.700;2022-11-21T03:44:03;68.63;;;26.13;;
58581;SDS011;44361;51.476;5.700;2022-11-21T03:48:57;68.43;;;26.05;;
58581;SDS011;44361;51.476;5.700;2022-11-21T03:51:23;73.38;;;26.48;;
58581;SDS011;44361;51.476;5.700;2022-11-21T03:53:49;70.68;;;26.90;;
58581;SDS011;44361;51.476;5.700;2022-11-21T03:56:15;77.57;;;28.35;;
58581;SDS011;44361;51.476;5.700;2022-11-21T03:58:41;65.40;;;25.42;;
58581;SDS011;44361;51.476;5.700;2022-11-21T04:01:07;76.30;;;28.25;;
58581;SDS011;44361;51.476;5.700;2022-11-21T04:03:33;75.65;;;28.67;;
58581;SDS011;44361;51.476;5.700;2022-11-21T04:05:59;68.95;;;25.05;;
58581;SDS011;44361;51.476;5.700;2022-11-21T04:08:25;71.57;;;26.15;;
58581;SDS011;44361;51.476;5.700;2022-11-21T04:10:52;76.57;;;27.30;;
58581;SDS011;44361;51.476;5.700;2022-11-21T04:13:18;70.35;;;26.98;;
58581;SDS011;44361;51.476;5.700;2022-11-21T04:15:44;71.28;;;26.55;;
58581;SDS011;44361;51.476;5.700;2022-11-21T04:18:10;83.85;;;28.55;;
58581;SDS011;44361;51.476;5.700;2022-11-21T04:20:36;70.57;;;27.35;;
58581;SDS011;44361;51.476;5.700;2022-11-21T04:23:02;84.95;;;29.02;;
58581;SDS011;44361;51.476;5.700;2022-11-21T04:25:28;94.03;;;27.17;;
58581;SDS011;44361;51.476;5.700;2022-11-21T04:27:57;92.45;;;27.48;;
58581;SDS011;44361;51.476;5.700;2022-11-21T04:30:23;78.93;;;27.38;;
58581;SDS011;44361;51.476;5.700;2022-11-21T04:32:52;80.93;;;26.25;;
58581;SDS011;44361;51.476;5.700;2022-11-21T04:35:19;77.38;;;27.33;;
58581;SDS011;44361;51.476;5.700;2022-11-21T04:37:45;81.22;;;27.63;;
58581;SDS011;44361;51.476;5.700;2022-11-21T04:40:11;73.68;;;25.60;;
58581;SDS011;44361;51.476;5.700;2022-11-21T04:42:41;67.38;;;26.80;;
58581;SDS011;44361;51.476;5.700;2022-11-21T04:45:07;73.53;;;26.23;;
58581;SDS011;44361;51.476;5.700;2022-11-21T04:47:37;69.43;;;24.92;;
58581;SDS011;44361;51.476;5.700;2022-11-21T04:50:03;66.88;;;25.75;;
58581;SDS011;44361;51.476;5.700;2022-11-21T04:52:29;68.15;;;25.83;;
58581;SDS011;44361;51.476;5.700;2022-11-21T04:54:55;76.00;;;26.23;;
58581;SDS011;44361;51.476;5.700;2022-11-21T04:57:21;82.65;;;26.33;;
58581;SDS011;44361;51.476;5.700;2022-11-21T04:59:47;73.00;;;26.42;;
58581;SDS011;44361;51.476;5.700;2022-11-21T05:02:12;76.00;;;26.73;;
58581;SDS011;44361;51.476;5.700;2022-11-21T05:04:38;85.03;;;27.48;;
58581;SDS011;44361;51.476;5.700;2022-11-21T05:07:04;91.45;;;28.98;;
58581;SDS011;44361;51.476;5.700;2022-11-21T05:09:30;89.05;;;28.35;;
58581;SDS011;44361;51.476;5.700;2022-11-21T05:11:55;103.28;;;29.13;;
58581;SDS011;44361;51.476;5.700;2022-11-21T05:14:39;92.97;;;29.03;;
58581;SDS011;44361;51.476;5.700;2022-11-21T05:17:05;137.90;;;32.22;;
58581;SDS011;44361;51.476;5.700;2022-11-21T05:19:30;114.32;;;30.42;;
58581;SDS011;44361;51.476;5.700;2022-11-21T05:21:56;112.72;;;31.85;;
58581;SDS011;44361;51.476;5.700;2022-11-21T05:24:22;142.20;;;30.83;;
58581;SDS011;44361;51.476;5.700;2022-11-21T05:26:47;111.13;;;29.65;;
58581;SDS011;44361;51.476;5.700;2022-11-21T05:29:13;94.70;;;29.70;;
58581;SDS011;44361;51.476;5.700;2022-11-21T05:31:38;94.72;;;30.75;;
58581;SDS011;44361;51.476;5.700;2022-11-21T05:34:04;100.43;;;29.67;;
58581;SDS011;44361;51.476;5.700;2022-11-21T05:36:29;119.35;;;31.25;;
58581;SDS011;44361;51.476;5.700;2022-11-21T05:38:55;99.47;;;30.38;;
58581;SDS011;44361;51.476;5.700;2022-11-21T05:41:21;112.38;;;30.65;;
58581;SDS011;44361;51.476;5.700;2022-11-21T05:43:47;91.18;;;29.38;;
58581;SDS011;44361;51.476;5.700;2022-11-21T05:46:18;91.38;;;29.55;;
58581;SDS011;44361;51.476;5.700;2022-11-21T05:48:46;79.25;;;28.63;;
58581;SDS011;44361;51.476;5.700;2022-11-21T05:51:13;92.22;;;29.00;;
58581;SDS011;44361;51.476;5.700;2022-11-21T05:53:39;97.55;;;30.38;;
58581;SDS011;44361;51.476;5.700;2022-11-21T05:56:06;82.88;;;28.13;;
58581;SDS011;44361;51.476;5.700;2022-11-21T05:58:33;96.50;;;29.63;;
58581;SDS011;44361;51.476;5.700;2022-11-21T06:01:00;82.68;;;26.90;;
58581;SDS011;44361;51.476;5.700;2022-11-21T06:03:26;85.43;;;28.05;;
58581;SDS011;44361;51.476;5.700;2022-11-21T06:06:10;89.90;;;28.40;;
58581;SDS011;44361;51.476;5.700;2022-11-21T06:08:44;81.93;;;27.58;;
58581;SDS011;44361;51.476;5.700;2022-11-21T06:11:11;76.30;;;26.35;;
58581;SDS011;44361;51.476;5.700;2022-11-21T06:13:38;82.80;;;26.58;;
58581;SDS011;44361;51.476;5.700;2022-11-21T06:16:06;83.72;;;26.67;;
58581;SDS011;44361;51.476;5.700;2022-11-21T06:18:36;72.15;;;25.33;;
58581;SDS011;44361;51.476;5.700;2022-11-21T06:21:07;77.22;;;25.63;;
58581;SDS011;44361;51.476;5.700;2022-11-21T06:23:37;67.97;;;24.55;;
58581;SDS011;44361;51.476;5.700;2022-11-21T06:26:05;66.40;;;23.83;;
58581;SDS011;44361;51.476;5.700;2022-11-21T06:28:33;63.67;;;23.70;;
58581;SDS011;44361;51.476;5.700;2022-11-21T06:31:04;64.90;;;22.35;;
58581;SDS011;44361;51.476;5.700;2022-11-21T06:33:35;60.92;;;21.85;;
58581;SDS011;44361;51.476;5.700;2022-11-21T06:36:04;53.20;;;21.83;;
58581;SDS011;44361;51.476;5.700;2022-11-21T06:38:32;55.13;;;20.00;;
58581;SDS011;44361;51.476;5.700;2022-11-21T06:41:02;55.03;;;20.50;;
58581;SDS011;44361;51.476;5.700;2022-11-21T06:43:32;55.47;;;20.40;;
58581;SDS011;44361;51.476;5.700;2022-11-21T06:45:58;46.40;;;19.75;;
58581;SDS011;44361;51.476;5.700;2022-11-21T06:48:23;44.85;;;18.75;;
58581;SDS011;44361;51.476;5.700;2022-11-21T06:50:49;43.45;;;18.60;;
58581;SDS011;44361;51.476;5.700;2022-11-21T06:53:15;44.95;;;18.75;;
58581;SDS011;44361;51.476;5.700;2022-11-21T06:55:40;46.78;;;17.90;;
58581;SDS011;44361;51.476;5.700;2022-11-21T06:58:06;47.55;;;19.60;;
58581;SDS011;44361;51.476;5.700;2022-11-21T07:00:31;51.33;;;19.10;;
58581;SDS011;44361;51.476;5.700;2022-11-21T07:03:01;43.53;;;19.27;;
58581;SDS011;44361;51.476;5.700;2022-11-21T07:05:27;43.88;;;18.40;;
58581;SDS011;44361;51.476;5.700;2022-11-21T07:08:00;41.92;;;18.30;;
58581;SDS011;44361;51.476;5.700;2022-11-21T07:10:26;45.13;;;19.08;;
58581;SDS011;44361;51.476;5.700;2022-11-21T07:12:56;47.63;;;18.40;;
58581;SDS011;44361;51.476;5.700;2022-11-21T07:15:41;40.80;;;17.85;;
58581;SDS011;44361;51.476;5.700;2022-11-21T07:18:07;49.10;;;18.20;;
58581;SDS011;44361;51.476;5.700;2022-11-21T07:20:33;40.80;;;19.30;;
58581;SDS011;44361;51.476;5.700;2022-11-21T07:22:58;43.47;;;19.15;;
58581;SDS011;44361;51.476;5.700;2022-11-21T07:25:25;39.08;;;19.35;;
58581;SDS011;44361;51.476;5.700;2022-11-21T07:27:50;48.78;;;19.00;;
58581;SDS011;44361;51.476;5.700;2022-11-21T07:30:16;43.00;;;19.27;;
58581;SDS011;44361;51.476;5.700;2022-11-21T07:32:41;37.85;;;17.65;;
58581;SDS011;44361;51.476;5.700;2022-11-21T07:35:07;40.15;;;17.50;;
58581;SDS011;44361;51.476;5.700;2022-11-21T07:37:36;40.83;;;17.40;;
58581;SDS011;44361;51.476;5.700;2022-11-21T07:40:05;45.60;;;18.92;;
58581;SDS011;44361;51.476;5.700;2022-11-21T07:42:34;42.15;;;18.05;;
58581;SDS011;44361;51.476;5.700;2022-11-21T07:44:59;51.15;;;18.52;;
58581;SDS011;44361;51.476;5.700;2022-11-21T07:47:25;51.03;;;19.08;;
58581;SDS011;44361;51.476;5.700;2022-11-21T07:49:50;49.53;;;18.63;;
58581;SDS011;44361;51.476;5.700;2022-11-21T07:52:16;42.42;;;18.45;;
58581;SDS011;44361;51.476;5.700;2022-11-21T07:54:41;49.58;;;19.13;;
58581;SDS011;44361;51.476;5.700;2022-11-21T07:57:07;44.72;;;20.23;;
58581;SDS011;44361;51.476;5.700;2022-11-21T07:59:32;47.70;;;18.50;;
58581;SDS011;44361;51.476;5.700;2022-11-21T08:01:58;47.28;;;18.60;;
58581;SDS011;44361;51.476;5.700;2022-11-21T08:04:24;38.28;;;17.52;;
58581;SDS011;44361;51.476;5.700;2022-11-21T08:06:50;47.40;;;17.95;;
58581;SDS011;44361;51.476;5.700;2022-11-21T08:09:15;40.65;;;16.67;;
58581;SDS011;44361;51.476;5.700;2022-11-21T08:11:41;37.20;;;15.20;;
58581;SDS011;44361;51.476;5.700;2022-11-21T08:14:06;41.13;;;15.90;;
58581;SDS011;44361;51.476;5.700;2022-11-21T08:16:32;33.17;;;14.75;;
58581;SDS011;44361;51.476;5.700;2022-11-21T08:18:58;37.05;;;15.55;;
58581;SDS011;44361;51.476;5.700;2022-11-21T08:21:24;41.25;;;14.88;;
58581;SDS011;44361;51.476;5.700;2022-11-21T08:23:50;35.00;;;14.07;;
58581;SDS011;44361;51.476;5.700;2022-11-21T08:26:16;34.70;;;15.55;;
58581;SDS011;44361;51.476;5.700;2022-11-21T08:28:42;35.97;;;14.48;;
58581;SDS011;44361;51.476;5.700;2022-11-21T08:31:07;31.75;;;13.98;;
58581;SDS011;44361;51.476;5.700;2022-11-21T08:33:33;26.52;;;12.25;;
58581;SDS011;44361;51.476;5.700;2022-11-21T08:36:06;28.52;;;12.55;;
58581;SDS011;44361;51.476;5.700;2022-11-21T08:38:32;29.08;;;12.77;;
58581;SDS011;44361;51.476;5.700;2022-11-21T08:40:58;29.05;;;12.35;;
58581;SDS011;44361;51.476;5.700;2022-11-21T08:43:42;29.03;;;13.07;;
58581;SDS011;44361;51.476;5.700;2022-11-21T08:46:07;27.23;;;12.65;;
58581;SDS011;44361;51.476;5.700;2022-11-21T08:48:33;27.60;;;12.55;;
58581;SDS011;44361;51.476;5.700;2022-11-21T08:50:59;36.40;;;12.32;;
58581;SDS011;44361;51.476;5.700;2022-11-21T08:53:24;32.38;;;13.07;;
58581;SDS011;44361;51.476;5.700;2022-11-21T08:55:50;35.15;;;12.80;;
58581;SDS011;44361;51.476;5.700;2022-11-21T08:58:17;33.10;;;12.35;;
58581;SDS011;44361;51.476;5.700;2022-11-21T09:00:43;37.28;;;13.85;;
58581;SDS011;44361;51.476;5.700;2022-11-21T09:03:08;26.45;;;13.40;;
58581;SDS011;44361;51.476;5.700;2022-11-21T09:05:34;32.78;;;13.10;;
58581;SDS011;44361;51.476;5.700;2022-11-21T09:07:59;30.92;;;12.63;;
58581;SDS011;44361;51.476;5.700;2022-11-21T09:10:25;40.75;;;13.05;;
58581;SDS011;44361;51.476;5.700;2022-11-21T09:12:51;27.83;;;12.82;;
58581;SDS011;44361;51.476;5.700;2022-11-21T09:15:17;30.38;;;12.88;;
58581;SDS011;44361;51.476;5.700;2022-11-21T09:18:01;28.52;;;12.52;;
58581;SDS011;44361;51.476;5.700;2022-11-21T09:20:28;32.50;;;11.82;;
58581;SDS011;44361;51.476;5.700;2022-11-21T09:22:54;29.20;;;12.23;;
58581;SDS011;44361;51.476;5.700;2022-11-21T09:25:20;25.60;;;11.35;;
58581;SDS011;44361;51.476;5.700;2022-11-21T09:27:45;27.90;;;11.48;;
58581;SDS011;44361;51.476;5.700;2022-11-21T09:30:11;27.05;;;10.55;;
58581;SDS011;44361;51.476;5.700;2022-11-21T09:32:36;27.27;;;10.82;;
58581;SDS011;44361;51.476;5.700;2022-11-21T09:35:02;29.67;;;10.63;;
58581;SDS011;44361;51.476;5.700;2022-11-21T09:37:28;27.08;;;11.18;;
58581;SDS011;44361;51.476;5.700;2022-11-21T09:39:54;28.17;;;9.32;;
58581;SDS011;44361;51.476;5.700;2022-11-21T09:45:13;24.15;;;10.98;;
58581;SDS011;44361;51.476;5.700;2022-11-21T09:47:43;21.27;;;9.43;;
58581;SDS011;44361;51.476;5.700;2022-11-21T09:52:43;22.92;;;10.00;;
58581;SDS011;44361;51.476;5.700;2022-11-21T09:58:19;24.38;;;9.45;;
58581;SDS011;44361;51.476;5.700;2022-11-21T10:00:58;22.80;;;8.52;;
58581;SDS011;44361;51.476;5.700;2022-11-21T10:03:25;16.70;;;7.70;;
58581;SDS011;44361;51.476;5.700;2022-11-21T10:05:55;15.40;;;6.60;;
58581;SDS011;44361;51.476;5.700;2022-11-21T10:08:42;20.25;;;7.38;;
58581;SDS011;44361;51.476;5.700;2022-11-21T10:11:31;13.50;;;6.50;;
58581;SDS011;44361;51.476;5.700;2022-11-21T10:14:35;20.42;;;6.88;;
58581;SDS011;44361;51.476;5.700;2022-11-21T10:17:34;17.83;;;6.57;;
58581;SDS011;44361;51.476;5.700;2022-11-21T10:20:06;20.45;;;5.57;;
58581;SDS011;44361;51.476;5.700;2022-11-21T10:22:36;19.45;;;6.30;;
58581;SDS011;44361;51.476;5.700;2022-11-21T10:25:23;19.92;;;5.68;;
58581;SDS011;44361;51.476;5.700;2022-11-21T10:30:22;15.90;;;4.85;;
58581;SDS011;44361;51.476;5.700;2022-11-21T10:32:52;15.07;;;4.75;;
58581;SDS011;44361;51.476;5.700;2022-11-21T10:35:23;17.60;;;4.30;;
58581;SDS011;44361;51.476;5.700;2022-11-21T10:37:54;11.80;;;4.18;;
58581;SDS011;44361;51.476;5.700;2022-11-21T10:43:05;14.68;;;4.80;;
58581;SDS011;44361;51.476;5.700;2022-11-21T10:45:51;17.00;;;4.85;;
58581;SDS011;44361;51.476;5.700;2022-11-21T10:48:17;12.95;;;4.43;;
58581;SDS011;44361;51.476;5.700;2022-11-21T10:53:33;13.50;;;3.65;;
58581;SDS011;44361;51.476;5.700;2022-11-21T10:56:18;11.70;;;3.83;;
58581;SDS011;44361;51.476;5.700;2022-11-21T10:58:53;16.60;;;4.40;;
58581;SDS011;44361;51.476;5.700;2022-11-21T11:06:35;10.38;;;3.90;;
58581;SDS011;44361;51.476;5.700;2022-11-21T11:09:01;10.00;;;4.40;;
58581;SDS011;44361;51.476;5.700;2022-11-21T11:11:27;12.98;;;3.72;;
58581;SDS011;44361;51.476;5.700;2022-11-21T11:13:54;14.93;;;3.40;;
58581;SDS011;44361;51.476;5.700;2022-11-21T11:16:23;11.05;;;3.88;;
58581;SDS011;44361;51.476;5.700;2022-11-21T11:21:26;9.35;;;3.30;;
58581;SDS011;44361;51.476;5.700;2022-11-21T11:23:54;10.25;;;3.35;;
58581;SDS011;44361;51.476;5.700;2022-11-21T11:31:56;17.88;;;3.35;;
58581;SDS011;44361;51.476;5.700;2022-11-21T11:49:07;13.25;;;3.38;;
58581;SDS011;44361;51.476;5.700;2022-11-21T11:51:39;5.88;;;2.40;;
58581;SDS011;44361;51.476;5.700;2022-11-21T11:54:32;10.32;;;2.15;;
58581;SDS011;44361;51.476;5.700;2022-11-21T11:57:11;5.40;;;1.88;;
58581;SDS011;44361;51.476;5.700;2022-11-21T11:59:39;9.63;;;2.20;;
58581;SDS011;44361;51.476;5.700;2022-11-21T12:02:18;11.02;;;2.15;;
58581;SDS011;44361;51.476;5.700;2022-11-21T12:04:48;8.10;;;2.03;;
58581;SDS011;44361;51.476;5.700;2022-11-21T12:07:20;7.32;;;1.92;;
58581;SDS011;44361;51.476;5.700;2022-11-21T12:12:39;4.75;;;1.70;;
58581;SDS011;44361;51.476;5.700;2022-11-21T12:18:12;8.82;;;2.80;;
58581;SDS011;44361;51.476;5.700;2022-11-21T12:23:44;9.63;;;2.42;;
58581;SDS011;44361;51.476;5.700;2022-11-21T12:26:17;11.15;;;2.75;;
58581;SDS011;44361;51.476;5.700;2022-11-21T12:37:32;6.75;;;2.88;;
58581;SDS011;44361;51.476;5.700;2022-11-21T12:42:53;7.70;;;2.72;;
58581;SDS011;44361;51.476;5.700;2022-11-21T12:46:24;9.35;;;2.22;;
58581;SDS011;44361;51.476;5.700;2022-11-21T12:49:34;9.98;;;2.10;;
58581;SDS011;44361;51.476;5.700;2022-11-21T12:58:04;9.57;;;2.30;;
58581;SDS011;44361;51.476;5.700;2022-11-21T13:03:24;8.70;;;1.95;;
58581;SDS011;44361;51.476;5.700;2022-11-21T13:05:57;4.53;;;1.85;;
58581;SDS011;44361;51.476;5.700;2022-11-21T13:08:24;8.45;;;1.55;;
58581;SDS011;44361;51.476;5.700;2022-11-21T13:14:18;7.65;;;1.60;;
58581;SDS011;44361;51.476;5.700;2022-11-21T13:16:56;4.88;;;1.65;;
58581;SDS011;44361;51.476;5.700;2022-11-21T13:25:03;5.00;;;1.70;;
58581;SDS011;44361;51.476;5.700;2022-11-21T13:27:42;9.07;;;1.90;;
58581;SDS011;44361;51.476;5.700;2022-11-21T13:32:41;8.10;;;3.78;;
58581;SDS011;44361;51.476;5.700;2022-11-21T13:40:34;10.60;;;4.10;;
58581;SDS011;44361;51.476;5.700;2022-11-21T13:45:44;15.27;;;2.53;;
58581;SDS011;44361;51.476;5.700;2022-11-21T13:56:28;9.73;;;2.72;;
58581;SDS011;44361;51.476;5.700;2022-11-21T14:02:34;9.18;;;2.75;;
58581;SDS011;44361;51.476;5.700;2022-11-21T14:07:34;6.10;;;2.67;;
58581;SDS011;44361;51.476;5.700;2022-11-21T14:10:02;14.60;;;3.05;;
58581;SDS011;44361;51.476;5.700;2022-11-21T14:12:52;7.50;;;2.58;;
58581;SDS011;44361;51.476;5.700;2022-11-21T14:15:21;7.70;;;2.38;;
58581;SDS011;44361;51.476;5.700;2022-11-21T14:17:56;8.93;;;2.58;;
58581;SDS011;44361;51.476;5.700;2022-11-21T14:20:24;8.07;;;2.55;;
58581;SDS011;44361;51.476;5.700;2022-11-21T14:22:55;9.63;;;2.30;;
58581;SDS011;44361;51.476;5.700;2022-11-21T14:28:08;7.13;;;2.33;;
58581;SDS011;44361;51.476;5.700;2022-11-21T14:30:37;8.65;;;2.00;;
58581;SDS011;44361;51.476;5.700;2022-11-21T14:33:24;10.02;;;2.83;;
58581;SDS011;44361;51.476;5.700;2022-11-21T14:35:54;10.40;;;2.00;;
58581;SDS011;44361;51.476;5.700;2022-11-21T14:38:25;8.80;;;2.50;;
58581;SDS011;44361;51.476;5.700;2022-11-21T14:41:10;8.80;;;3.10;;
58581;SDS011;44361;51.476;5.700;2022-11-21T14:43:39;6.32;;;2.00;;
58581;SDS011;44361;51.476;5.700;2022-11-21T14:46:11;3.72;;;1.90;;
58581;SDS011;44361;51.476;5.700;2022-11-21T14:48:40;9.80;;;2.10;;
58581;SDS011;44361;51.476;5.700;2022-11-21T14:51:10;8.95;;;2.70;;
58581;SDS011;44361;51.476;5.700;2022-11-21T14:53:40;3.67;;;1.40;;
58581;SDS011;44361;51.476;5.700;2022-11-21T14:56:23;6.68;;;2.08;;
58581;SDS011;44361;51.476;5.700;2022-11-21T14:58:51;8.15;;;1.70;;
58581;SDS011;44361;51.476;5.700;2022-11-21T15:01:19;5.63;;;1.83;;
58581;SDS011;44361;51.476;5.700;2022-11-21T15:03:58;7.63;;;2.15;;
58581;SDS011;44361;51.476;5.700;2022-11-21T15:06:25;6.18;;;2.00;;
58581;SDS011;44361;51.476;5.700;2022-11-21T15:08:53;6.15;;;2.08;;
58581;SDS011;44361;51.476;5.700;2022-11-21T15:11:21;8.68;;;2.03;;
58581;SDS011;44361;51.476;5.700;2022-11-21T15:14:05;12.77;;;2.13;;
58581;SDS011;44361;51.476;5.700;2022-11-21T15:16:41;10.25;;;2.78;;
58581;SDS011;44361;51.476;5.700;2022-11-21T15:19:16;7.40;;;2.30;;
58581;SDS011;44361;51.476;5.700;2022-11-21T15:21:51;8.55;;;3.10;;
58581;SDS011;44361;51.476;5.700;2022-11-21T15:24:27;6.65;;;1.77;;
58581;SDS011;44361;51.476;5.700;2022-11-21T15:26:54;5.53;;;1.83;;
58581;SDS011;44361;51.476;5.700;2022-11-21T15:29:20;7.13;;;2.13;;
58581;SDS011;44361;51.476;5.700;2022-11-21T15:34:35;9.80;;;1.85;;
58581;SDS011;44361;51.476;5.700;2022-11-21T15:37:04;6.03;;;1.55;;
58581;SDS011;44361;51.476;5.700;2022-11-21T15:39:40;6.65;;;2.20;;
58581;SDS011;44361;51.476;5.700;2022-11-21T15:42:27;9.48;;;1.90;;
58581;SDS011;44361;51.476;5.700;2022-11-21T15:44:59;5.40;;;1.90;;
58581;SDS011;44361;51.476;5.700;2022-11-21T15:47:25;9.27;;;1.95;;
58581;SDS011;44361;51.476;5.700;2022-11-21T15:49:51;8.07;;;2.00;;
58581;SDS011;44361;51.476;5.700;2022-11-21T15:52:18;10.00;;;2.10;;
58581;SDS011;44361;51.476;5.700;2022-11-21T15:54:43;10.20;;;1.63;;
58581;SDS011;44361;51.476;5.700;2022-11-21T15:57:09;6.90;;;1.60;;
58581;SDS011;44361;51.476;5.700;2022-11-21T15:59:34;5.47;;;1.63;;
58581;SDS011;44361;51.476;5.700;2022-11-21T16:02:00;6.20;;;1.65;;
58581;SDS011;44361;51.476;5.700;2022-11-21T16:04:25;6.65;;;1.95;;
58581;SDS011;44361;51.476;5.700;2022-11-21T16:06:51;7.30;;;1.85;;
58581;SDS011;44361;51.476;5.700;2022-11-21T16:09:17;7.78;;;1.80;;
58581;SDS011;44361;51.476;5.700;2022-11-21T16:11:43;5.70;;;1.75;;
58581;SDS011;44361;51.476;5.700;2022-11-21T16:14:11;7.65;;;1.70;;
58581;SDS011;44361;51.476;5.700;2022-11-21T16:16:39;5.07;;;1.45;;
58581;SDS011;44361;51.476;5.700;2022-11-21T16:19:06;5.95;;;1.60;;
58581;SDS011;44361;51.476;5.700;2022-11-21T16:21:34;11.23;;;1.80;;
58581;SDS011;44361;51.476;5.700;2022-11-21T16:24:00;6.18;;;1.83;;
58581;SDS011;44361;51.476;5.700;2022-11-21T16:26:25;7.75;;;1.80;;
58581;SDS011;44361;51.476;5.700;2022-11-21T16:28:54;7.43;;;2.03;;
58581;SDS011;44361;51.476;5.700;2022-11-21T16:31:21;7.55;;;1.70;;
58581;SDS011;44361;51.476;5.700;2022-11-21T16:33:51;6.40;;;2.10;;
58581;SDS011;44361;51.476;5.700;2022-11-21T16:36:20;7.55;;;2.35;;
58581;SDS011;44361;51.476;5.700;2022-11-21T16:38:47;4.22;;;2.30;;
58581;SDS011;44361;51.476;5.700;2022-11-21T16:41:14;11.77;;;2.58;;
58581;SDS011;44361;51.476;5.700;2022-11-21T16:43:47;4.38;;;2.00;;
58581;SDS011;44361;51.476;5.700;2022-11-21T16:46:15;10.05;;;2.13;;
58581;SDS011;44361;51.476;5.700;2022-11-21T16:48:42;11.25;;;2.38;;